sensor_id;sensor_type;location;lat;lon;timestamp;P1;durP1;ratioP1;P2;durP2;ratioP2
55609;SDS011;41486;52.502;13.486;2023-06-14T00:00:37;1.55;;;1.15;;
55609;SDS011;41486;52.502;13.486;2023-06-14T00:03:07;2.17;;;1.20;;
55609;SDS011;41486;52.502;13.486;2023-06-14T00:05:37;3.20;;;1.60;;
55609;SDS011;41486;52.502;13.486;2023-06-14T00:08:09;2.97;;;1.30;;
55609;SDS011;41486;52.502;13.486;2023-06-14T00:10:37;1.92;;;1.25;;
55609;SDS011;41486;52.502;13.486;2023-06-14T00:13:09;3.20;;;1.38;;
55609;SDS011;41486;52.502;13.486;2023-06-14T00:15:38;2.45;;;1.60;;
55609;SDS011;41486;52.502;13.486;2023-06-14T00:18:06;1.67;;;1.25;;
55609;SDS011;41486;52.502;13.486;2023-06-14T00:20:34;2.03;;;1.60;;
55609;SDS011;41486;52.502;13.486;2023-06-14T00:23:02;2.42;;;1.50;;
55609;SDS011;41486;52.502;13.486;2023-06-14T00:25:30;2.15;;;1.30;;
55609;SDS011;41486;52.502;13.486;2023-06-14T00:27:58;2.95;;;1.50;;
55609;SDS011;41486;52.502;13.486;2023-06-14T00:30:27;4.10;;;1.55;;
55609;SDS011;41486;52.502;13.486;2023-06-14T00:32:57;3.22;;;1.35;;
55609;SDS011;41486;52.502;13.486;2023-06-14T00:35:26;2.95;;;1.70;;
55609;SDS011;41486;52.502;13.486;2023-06-14T00:37:54;2.25;;;1.42;;
55609;SDS011;41486;52.502;13.486;2023-06-14T00:40:22;4.13;;;1.88;;
55609;SDS011;41486;52.502;13.486;2023-06-14T00:42:50;2.40;;;1.50;;
55609;SDS011;41486;52.502;13.486;2023-06-14T00:45:18;2.28;;;1.50;;
55609;SDS011;41486;52.502;13.486;2023-06-14T00:47:50;3.80;;;1.75;;
55609;SDS011;41486;52.502;13.486;2023-06-14T00:50:21;2.35;;;1.63;;
55609;SDS011;41486;52.502;13.486;2023-06-14T00:52:50;2.78;;;1.60;;
55609;SDS011;41486;52.502;13.486;2023-06-14T00:55:18;2.90;;;1.88;;
55609;SDS011;41486;52.502;13.486;2023-06-14T00:57:47;1.95;;;1.73;;
55609;SDS011;41486;52.502;13.486;2023-06-14T01:00:15;2.40;;;1.73;;
55609;SDS011;41486;52.502;13.486;2023-06-14T01:02:44;2.72;;;1.80;;
55609;SDS011;41486;52.502;13.486;2023-06-14T01:05:13;3.20;;;2.03;;
55609;SDS011;41486;52.502;13.486;2023-06-14T01:07:46;3.13;;;2.20;;
55609;SDS011;41486;52.502;13.486;2023-06-14T01:10:26;2.75;;;1.88;;
55609;SDS011;41486;52.502;13.486;2023-06-14T01:13:05;3.83;;;1.80;;
55609;SDS011;41486;52.502;13.486;2023-06-14T01:15:38;2.67;;;2.15;;
55609;SDS011;41486;52.502;13.486;2023-06-14T01:18:08;2.30;;;1.60;;
55609;SDS011;41486;52.502;13.486;2023-06-14T01:20:46;3.78;;;1.90;;
55609;SDS011;41486;52.502;13.486;2023-06-14T01:23:18;4.47;;;1.90;;
55609;SDS011;41486;52.502;13.486;2023-06-14T01:25:47;2.50;;;2.28;;
55609;SDS011;41486;52.502;13.486;2023-06-14T01:28:20;2.75;;;2.15;;
55609;SDS011;41486;52.502;13.486;2023-06-14T01:30:49;4.25;;;2.05;;
55609;SDS011;41486;52.502;13.486;2023-06-14T01:33:20;2.78;;;2.25;;
55609;SDS011;41486;52.502;13.486;2023-06-14T01:35:51;2.83;;;1.95;;
55609;SDS011;41486;52.502;13.486;2023-06-14T01:38:23;6.22;;;2.03;;
55609;SDS011;41486;52.502;13.486;2023-06-14T01:40:54;3.42;;;2.00;;
55609;SDS011;41486;52.502;13.486;2023-06-14T01:43:25;2.90;;;2.33;;
55609;SDS011;41486;52.502;13.486;2023-06-14T01:45:57;2.67;;;2.03;;
55609;SDS011;41486;52.502;13.486;2023-06-14T01:48:27;2.65;;;1.92;;
55609;SDS011;41486;52.502;13.486;2023-06-14T01:50:55;4.63;;;2.22;;
55609;SDS011;41486;52.502;13.486;2023-06-14T01:53:24;2.90;;;2.38;;
55609;SDS011;41486;52.502;13.486;2023-06-14T01:55:52;3.58;;;2.55;;
55609;SDS011;41486;52.502;13.486;2023-06-14T01:58:21;3.50;;;2.08;;
55609;SDS011;41486;52.502;13.486;2023-06-14T02:00:50;4.63;;;2.70;;
55609;SDS011;41486;52.502;13.486;2023-06-14T02:03:21;3.55;;;2.45;;
55609;SDS011;41486;52.502;13.486;2023-06-14T02:05:51;3.22;;;2.33;;
55609;SDS011;41486;52.502;13.486;2023-06-14T02:08:21;3.83;;;2.67;;
55609;SDS011;41486;52.502;13.486;2023-06-14T02:10:51;4.32;;;2.22;;
55609;SDS011;41486;52.502;13.486;2023-06-14T02:13:21;3.45;;;2.50;;
55609;SDS011;41486;52.502;13.486;2023-06-14T02:15:50;3.38;;;2.75;;
55609;SDS011;41486;52.502;13.486;2023-06-14T02:18:21;3.22;;;2.58;;
55609;SDS011;41486;52.502;13.486;2023-06-14T02:20:49;4.03;;;2.63;;
55609;SDS011;41486;52.502;13.486;2023-06-14T02:23:17;2.72;;;1.88;;
55609;SDS011;41486;52.502;13.486;2023-06-14T02:25:45;4.68;;;2.70;;
55609;SDS011;41486;52.502;13.486;2023-06-14T02:28:15;3.97;;;2.33;;
55609;SDS011;41486;52.502;13.486;2023-06-14T02:30:43;4.40;;;2.55;;
55609;SDS011;41486;52.502;13.486;2023-06-14T02:33:11;3.63;;;2.58;;
55609;SDS011;41486;52.502;13.486;2023-06-14T02:35:39;3.97;;;2.50;;
55609;SDS011;41486;52.502;13.486;2023-06-14T02:38:08;3.47;;;2.80;;
55609;SDS011;41486;52.502;13.486;2023-06-14T02:40:36;3.08;;;2.17;;
55609;SDS011;41486;52.502;13.486;2023-06-14T02:43:04;3.88;;;2.90;;
55609;SDS011;41486;52.502;13.486;2023-06-14T02:45:33;3.22;;;2.70;;
55609;SDS011;41486;52.502;13.486;2023-06-14T02:48:01;5.13;;;2.60;;
55609;SDS011;41486;52.502;13.486;2023-06-14T02:50:30;5.15;;;2.60;;
55609;SDS011;41486;52.502;13.486;2023-06-14T02:52:58;4.32;;;2.65;;
55609;SDS011;41486;52.502;13.486;2023-06-14T02:55:27;4.28;;;2.88;;
55609;SDS011;41486;52.502;13.486;2023-06-14T02:57:55;4.85;;;2.80;;
55609;SDS011;41486;52.502;13.486;2023-06-14T03:00:24;5.78;;;2.90;;
55609;SDS011;41486;52.502;13.486;2023-06-14T03:02:54;5.38;;;2.70;;
55609;SDS011;41486;52.502;13.486;2023-06-14T03:05:23;4.43;;;2.72;;
55609;SDS011;41486;52.502;13.486;2023-06-14T03:07:54;4.75;;;3.22;;
55609;SDS011;41486;52.502;13.486;2023-06-14T03:10:24;4.63;;;2.90;;
55609;SDS011;41486;52.502;13.486;2023-06-14T03:12:56;3.28;;;2.55;;
55609;SDS011;41486;52.502;13.486;2023-06-14T03:15:25;4.53;;;3.10;;
55609;SDS011;41486;52.502;13.486;2023-06-14T03:17:55;7.47;;;3.33;;
55609;SDS011;41486;52.502;13.486;2023-06-14T03:20:26;4.88;;;3.00;;
55609;SDS011;41486;52.502;13.486;2023-06-14T03:22:55;4.47;;;2.97;;
55609;SDS011;41486;52.502;13.486;2023-06-14T03:25:24;4.40;;;2.83;;
55609;SDS011;41486;52.502;13.486;2023-06-14T03:27:56;8.82;;;3.10;;
55609;SDS011;41486;52.502;13.486;2023-06-14T03:30:24;3.80;;;2.72;;
55609;SDS011;41486;52.502;13.486;2023-06-14T03:32:52;3.97;;;2.50;;
55609;SDS011;41486;52.502;13.486;2023-06-14T03:35:25;6.80;;;2.90;;
55609;SDS011;41486;52.502;13.486;2023-06-14T03:37:54;4.18;;;2.63;;
55609;SDS011;41486;52.502;13.486;2023-06-14T03:40:23;3.58;;;2.60;;
55609;SDS011;41486;52.502;13.486;2023-06-14T03:42:59;4.85;;;3.17;;
55609;SDS011;41486;52.502;13.486;2023-06-14T03:45:27;4.45;;;3.00;;
55609;SDS011;41486;52.502;13.486;2023-06-14T03:47:57;4.53;;;3.03;;
55609;SDS011;41486;52.502;13.486;2023-06-14T03:50:30;5.00;;;2.83;;
55609;SDS011;41486;52.502;13.486;2023-06-14T03:52:59;4.03;;;2.88;;
55609;SDS011;41486;52.502;13.486;2023-06-14T03:55:28;4.70;;;3.20;;
55609;SDS011;41486;52.502;13.486;2023-06-14T03:58:01;8.50;;;3.42;;
55609;SDS011;41486;52.502;13.486;2023-06-14T04:00:29;6.95;;;3.80;;
55609;SDS011;41486;52.502;13.486;2023-06-14T04:02:58;5.55;;;3.20;;
55609;SDS011;41486;52.502;13.486;2023-06-14T04:05:27;8.68;;;4.03;;
55609;SDS011;41486;52.502;13.486;2023-06-14T04:07:57;4.65;;;3.20;;
55609;SDS011;41486;52.502;13.486;2023-06-14T04:10:25;6.30;;;3.53;;
55609;SDS011;41486;52.502;13.486;2023-06-14T04:12:53;4.93;;;3.40;;
55609;SDS011;41486;52.502;13.486;2023-06-14T04:15:21;6.28;;;3.13;;
55609;SDS011;41486;52.502;13.486;2023-06-14T04:17:52;6.38;;;3.30;;
55609;SDS011;41486;52.502;13.486;2023-06-14T04:20:24;4.00;;;3.17;;
55609;SDS011;41486;52.502;13.486;2023-06-14T04:22:53;4.07;;;3.50;;
55609;SDS011;41486;52.502;13.486;2023-06-14T04:25:24;4.88;;;3.00;;
55609;SDS011;41486;52.502;13.486;2023-06-14T04:27:55;7.35;;;3.47;;
55609;SDS011;41486;52.502;13.486;2023-06-14T04:30:23;5.70;;;3.17;;
55609;SDS011;41486;52.502;13.486;2023-06-14T04:32:53;3.75;;;3.00;;
55609;SDS011;41486;52.502;13.486;2023-06-14T04:35:23;14.93;;;3.70;;
55609;SDS011;41486;52.502;13.486;2023-06-14T04:37:52;8.05;;;4.15;;
55609;SDS011;41486;52.502;13.486;2023-06-14T04:40:21;5.82;;;3.38;;
55609;SDS011;41486;52.502;13.486;2023-06-14T04:42:51;6.80;;;3.30;;
55609;SDS011;41486;52.502;13.486;2023-06-14T04:45:19;5.72;;;3.40;;
55609;SDS011;41486;52.502;13.486;2023-06-14T04:47:49;6.60;;;3.20;;
55609;SDS011;41486;52.502;13.486;2023-06-14T04:50:22;4.45;;;3.40;;
55609;SDS011;41486;52.502;13.486;2023-06-14T04:52:50;5.50;;;3.75;;
55609;SDS011;41486;52.502;13.486;2023-06-14T04:55:19;6.55;;;3.67;;
55609;SDS011;41486;52.502;13.486;2023-06-14T04:57:47;5.53;;;3.42;;
55609;SDS011;41486;52.502;13.486;2023-06-14T05:00:21;7.82;;;3.20;;
55609;SDS011;41486;52.502;13.486;2023-06-14T05:02:50;6.35;;;3.33;;
55609;SDS011;41486;52.502;13.486;2023-06-14T05:05:19;5.57;;;3.63;;
55609;SDS011;41486;52.502;13.486;2023-06-14T05:07:48;5.13;;;2.92;;
55609;SDS011;41486;52.502;13.486;2023-06-14T05:10:17;8.10;;;4.38;;
55609;SDS011;41486;52.502;13.486;2023-06-14T05:12:46;9.32;;;3.63;;
55609;SDS011;41486;52.502;13.486;2023-06-14T05:15:16;6.88;;;4.95;;
55609;SDS011;41486;52.502;13.486;2023-06-14T05:17:46;4.82;;;3.25;;
55609;SDS011;41486;52.502;13.486;2023-06-14T05:20:19;8.45;;;3.17;;
55609;SDS011;41486;52.502;13.486;2023-06-14T05:22:48;4.88;;;3.45;;
55609;SDS011;41486;52.502;13.486;2023-06-14T05:25:18;5.05;;;3.15;;
55609;SDS011;41486;52.502;13.486;2023-06-14T05:27:46;5.15;;;3.63;;
55609;SDS011;41486;52.502;13.486;2023-06-14T05:30:15;5.78;;;3.17;;
55609;SDS011;41486;52.502;13.486;2023-06-14T05:32:43;4.63;;;3.13;;
55609;SDS011;41486;52.502;13.486;2023-06-14T05:35:13;5.68;;;3.38;;
55609;SDS011;41486;52.502;13.486;2023-06-14T19:56:19;3.35;;;1.98;;
55609;SDS011;41486;52.502;13.486;2023-06-14T19:58:48;2.92;;;1.95;;
55609;SDS011;41486;52.502;13.486;2023-06-14T20:01:16;2.83;;;1.80;;
55609;SDS011;41486;52.502;13.486;2023-06-14T20:03:44;3.72;;;2.05;;
55609;SDS011;41486;52.502;13.486;2023-06-14T20:06:13;7.38;;;2.75;;
55609;SDS011;41486;52.502;13.486;2023-06-14T20:08:41;7.50;;;1.88;;
55609;SDS011;41486;52.502;13.486;2023-06-14T20:11:09;2.45;;;1.65;;
55609;SDS011;41486;52.502;13.486;2023-06-14T20:13:38;3.00;;;2.13;;
55609;SDS011;41486;52.502;13.486;2023-06-14T20:16:07;4.32;;;1.95;;
55609;SDS011;41486;52.502;13.486;2023-06-14T20:18:35;6.25;;;1.90;;
55609;SDS011;41486;52.502;13.486;2023-06-14T20:21:05;6.60;;;1.90;;
55609;SDS011;41486;52.502;13.486;2023-06-14T20:23:33;5.80;;;2.17;;
55609;SDS011;41486;52.502;13.486;2023-06-14T20:26:02;4.00;;;1.88;;
55609;SDS011;41486;52.502;13.486;2023-06-14T20:28:30;3.53;;;1.80;;
55609;SDS011;41486;52.502;13.486;2023-06-14T20:31:01;3.70;;;1.92;;
55609;SDS011;41486;52.502;13.486;2023-06-14T20:33:29;2.60;;;1.80;;
55609;SDS011;41486;52.502;13.486;2023-06-14T20:35:57;3.05;;;1.70;;
55609;SDS011;41486;52.502;13.486;2023-06-14T20:38:25;4.40;;;2.00;;
55609;SDS011;41486;52.502;13.486;2023-06-14T20:40:54;6.15;;;1.92;;
55609;SDS011;41486;52.502;13.486;2023-06-14T20:43:25;3.95;;;1.80;;
55609;SDS011;41486;52.502;13.486;2023-06-14T20:45:53;3.83;;;1.85;;
55609;SDS011;41486;52.502;13.486;2023-06-14T20:48:24;2.33;;;1.63;;
55609;SDS011;41486;52.502;13.486;2023-06-14T20:50:54;3.75;;;1.80;;
55609;SDS011;41486;52.502;13.486;2023-06-14T20:53:22;5.20;;;2.75;;
55609;SDS011;41486;52.502;13.486;2023-06-14T20:55:50;4.32;;;1.75;;
55609;SDS011;41486;52.502;13.486;2023-06-14T20:58:18;3.25;;;1.75;;
55609;SDS011;41486;52.502;13.486;2023-06-14T21:00:47;5.32;;;1.95;;
55609;SDS011;41486;52.502;13.486;2023-06-14T21:03:15;2.97;;;1.88;;
55609;SDS011;41486;52.502;13.486;2023-06-14T21:05:45;9.75;;;3.05;;
55609;SDS011;41486;52.502;13.486;2023-06-14T21:08:13;3.28;;;1.65;;
55609;SDS011;41486;52.502;13.486;2023-06-14T21:10:41;6.20;;;1.98;;
55609;SDS011;41486;52.502;13.486;2023-06-14T21:13:09;4.32;;;1.75;;
55609;SDS011;41486;52.502;13.486;2023-06-14T21:15:38;3.10;;;1.60;;
55609;SDS011;41486;52.502;13.486;2023-06-14T21:18:06;3.50;;;1.80;;
55609;SDS011;41486;52.502;13.486;2023-06-14T21:20:36;3.15;;;1.63;;
55609;SDS011;41486;52.502;13.486;2023-06-14T21:23:06;2.72;;;1.48;;
55609;SDS011;41486;52.502;13.486;2023-06-14T21:25:36;2.72;;;1.80;;
55609;SDS011;41486;52.502;13.486;2023-06-14T21:28:06;2.90;;;1.83;;
55609;SDS011;41486;52.502;13.486;2023-06-14T21:30:35;4.18;;;2.17;;
55609;SDS011;41486;52.502;13.486;2023-06-14T21:33:03;2.40;;;1.63;;
55609;SDS011;41486;52.502;13.486;2023-06-14T21:35:32;4.88;;;2.03;;
55609;SDS011;41486;52.502;13.486;2023-06-14T21:38:00;3.20;;;1.90;;
55609;SDS011;41486;52.502;13.486;2023-06-14T21:40:30;3.95;;;2.50;;
55609;SDS011;41486;52.502;13.486;2023-06-14T21:42:58;5.90;;;2.30;;
55609;SDS011;41486;52.502;13.486;2023-06-14T21:45:26;3.40;;;2.00;;
55609;SDS011;41486;52.502;13.486;2023-06-14T21:47:54;2.53;;;2.00;;
55609;SDS011;41486;52.502;13.486;2023-06-14T21:50:22;2.30;;;1.80;;
55609;SDS011;41486;52.502;13.486;2023-06-14T21:52:51;3.75;;;2.13;;
55609;SDS011;41486;52.502;13.486;2023-06-14T21:55:19;3.60;;;1.88;;
55609;SDS011;41486;52.502;13.486;2023-06-14T21:57:51;13.30;;;2.72;;
55609;SDS011;41486;52.502;13.486;2023-06-14T22:00:19;3.50;;;2.08;;
55609;SDS011;41486;52.502;13.486;2023-06-14T22:02:50;3.03;;;2.00;;
55609;SDS011;41486;52.502;13.486;2023-06-14T22:05:19;4.70;;;1.60;;
55609;SDS011;41486;52.502;13.486;2023-06-14T22:07:47;4.95;;;2.03;;
55609;SDS011;41486;52.502;13.486;2023-06-14T22:10:15;5.57;;;2.20;;
55609;SDS011;41486;52.502;13.486;2023-06-14T22:12:46;5.95;;;1.70;;
55609;SDS011;41486;52.502;13.486;2023-06-14T22:15:17;3.75;;;2.13;;
55609;SDS011;41486;52.502;13.486;2023-06-14T22:17:45;4.35;;;1.85;;
55609;SDS011;41486;52.502;13.486;2023-06-14T22:20:14;3.20;;;2.30;;
55609;SDS011;41486;52.502;13.486;2023-06-14T22:22:42;6.43;;;2.40;;
55609;SDS011;41486;52.502;13.486;2023-06-14T22:25:11;4.50;;;1.75;;
55609;SDS011;41486;52.502;13.486;2023-06-14T22:27:39;4.50;;;2.22;;
55609;SDS011;41486;52.502;13.486;2023-06-14T22:30:12;7.75;;;2.97;;
55609;SDS011;41486;52.502;13.486;2023-06-14T22:32:45;3.40;;;2.20;;
55609;SDS011;41486;52.502;13.486;2023-06-14T22:37:44;2.35;;;1.70;;
55609;SDS011;41486;52.502;13.486;2023-06-14T22:40:14;3.15;;;1.70;;
55609;SDS011;41486;52.502;13.486;2023-06-14T22:42:44;4.07;;;1.98;;
55609;SDS011;41486;52.502;13.486;2023-06-14T22:45:16;5.97;;;1.95;;
55609;SDS011;41486;52.502;13.486;2023-06-14T22:47:52;3.22;;;1.83;;
55609;SDS011;41486;52.502;13.486;2023-06-14T22:50:20;4.75;;;2.20;;
55609;SDS011;41486;52.502;13.486;2023-06-14T22:52:48;6.68;;;2.85;;
55609;SDS011;41486;52.502;13.486;2023-06-14T22:55:16;4.00;;;2.17;;
55609;SDS011;41486;52.502;13.486;2023-06-14T22:57:45;5.28;;;1.90;;
55609;SDS011;41486;52.502;13.486;2023-06-14T23:00:14;4.18;;;1.83;;
55609;SDS011;41486;52.502;13.486;2023-06-14T23:02:43;2.78;;;2.00;;
55609;SDS011;41486;52.502;13.486;2023-06-14T23:05:15;3.65;;;2.03;;
55609;SDS011;41486;52.502;13.486;2023-06-14T23:07:44;4.60;;;2.13;;
55609;SDS011;41486;52.502;13.486;2023-06-14T23:10:13;3.00;;;2.08;;
55609;SDS011;41486;52.502;13.486;2023-06-14T23:12:43;5.15;;;2.10;;
55609;SDS011;41486;52.502;13.486;2023-06-14T23:15:12;7.07;;;2.15;;
55609;SDS011;41486;52.502;13.486;2023-06-14T23:17:41;10.50;;;2.90;;
55609;SDS011;41486;52.502;13.486;2023-06-14T23:20:11;3.83;;;1.90;;
55609;SDS011;41486;52.502;13.486;2023-06-14T23:22:41;6.15;;;2.45;;
55609;SDS011;41486;52.502;13.486;2023-06-14T23:25:10;3.13;;;2.00;;
55609;SDS011;41486;52.502;13.486;2023-06-14T23:27:41;4.65;;;2.22;;
55609;SDS011;41486;52.502;13.486;2023-06-14T23:30:10;2.60;;;1.80;;
55609;SDS011;41486;52.502;13.486;2023-06-14T23:32:40;1.75;;;1.60;;
55609;SDS011;41486;52.502;13.486;2023-06-14T23:35:08;5.07;;;2.55;;
55609;SDS011;41486;52.502;13.486;2023-06-14T23:37:36;4.15;;;1.95;;
55609;SDS011;41486;52.502;13.486;2023-06-14T23:40:07;2.05;;;1.83;;
55609;SDS011;41486;52.502;13.486;2023-06-14T23:42:37;3.85;;;2.08;;
55609;SDS011;41486;52.502;13.486;2023-06-14T23:45:07;3.05;;;2.22;;
55609;SDS011;41486;52.502;13.486;2023-06-14T23:47:36;4.22;;;2.17;;
55609;SDS011;41486;52.502;13.486;2023-06-14T23:50:05;6.25;;;2.03;;
55609;SDS011;41486;52.502;13.486;2023-06-14T23:52:34;4.47;;;2.08;;
55609;SDS011;41486;52.502;13.486;2023-06-14T23:55:02;2.60;;;1.70;;
55609;SDS011;41486;52.502;13.486;2023-06-14T23:57:33;4.80;;;2.25;;
